Jerseyville, IL

8:44 PM CST on November 22, 2014 (GMT -0600)
Timber Ridge | Change Station
CLOSE
Current Station
Personal Weather Station
Location: Godfrey, IL
Elevation: 430 ft
Nearby Weather Stations

Elev 430 ft 38.96 °N, 90.27 °W | Updated 3 minutes ago

Overcast
Overcast
51.8 °F
Feels Like 51.8 °F
N
3.0
Wind Variable Wind from SE
Gusts 3.0 mph

Today
High -- | Low -- °F
--% Chance of Precip.
Yesterday
High -- | Low -- °F
Precip. -- in
6:52 AM 4:42 PM
New Moon, 0% visible
Pressure 29.91 in
Visibility 6.0 miles
Clouds Overcast 1300 ft
Dew Point 50 °F
Humidity 94%
Rainfall 0.05 in
Snow Depth Not available.
UV 0 out of 12
Pollen 2.00 out of 12
Air Quality Not available.
Flu Activity Not available.
SPECI KSET 230238Z AUTO 17006KT 6SM -RA BR OVC013 11/11 A2991 RMK AO2 RAB36 P0001 T01110106

More Conditions Fewer Conditions

Pressure 29.91 in
Visibility 6.0 miles
Clouds Overcast 1300 ft
Dew Point 50 °F
Humidity 94%
Rainfall 0.05 in
Snow Depth Not available.
UV 0 out of 12
Pollen 2.00 out of 12
Air Quality Not available.
Flu Activity Not available.
SPECI KSET 230238Z AUTO 17006KT 6SM -RA BR OVC013 11/11 A2991 RMK AO2 RAB36 P0001 T01110106

More Conditions Fewer Conditions

10-Day Weather Forecast

Almanac

Astronomy

Nov. 22, 2014 Rise Set
Actual Time
Civil Twilight
Nautical Twilight
Astronomical Twilight
Moon
Length of Visible Light
Length of Day
Tomorrow will be .
, % of the Moon is Illuminated

Today's Extremes

State Highs State Lows

Community

WunderPhotos

Upload Photos

1,772,978 photos uploaded!

WunderBlogs® & News

Nearby

Air Quality

  Air Quality AQ Index Pollutant
Not available.

Snow Depth

Station Depth Elevation

Earthquake Activity

City Distance Mag. Time & Date
Minimum magnitude displayed is 2.5.

Coastal Water Temperatures

Place Temperature

Nearby Weather Stations